Terminal Aerodrome Forecast
Issued by NWS

Home | Current Version | Previous Version | Text Only | Print | Product List | Glossary On
Versions: 1 2 3 4 5 6 7 8 9 10 11 12 13 14 15 16 17 18 19 20 21 22 23 24 25 26 27 28 29 30 31 32 33 34 35 36 37 38 39 40 41 42 43 44 45 46 47 48 49 50
389
FTUS46 KEKA 250058 AAA
TAFACV
TAF AMD
KACV 250058Z 2501/2524 29005KT 4SM BR OVC003
      TEMPO 2501/2503 1/4SM FG
     FM250400 13003KT 1/2SM FG VV002
     FM251000 VRB02KT 1/4SM FG VV001
     FM251800 27005KT 2SM BR BKN002
     FM252100 26005KT 5SM BR BKN003=

USA.gov is the U.S. government's official web portal to all federal, state and local government web resources and services.